Time;durP1;ratioP1;P1;durP2;ratioP2;P2;SDS_P1;SDS_P2;PMS_P1;PMS_P2;Temp;Humidity;BMP_temperature;BMP_pressure;BME280_temperature;BME280_humidity;BME280_pressure;Samples;Min_cycle;Max_cycle;Signal;HPM_P1;HPM_P2
2023/09/25 00:01:16;;;;;;;3.38;3.05;;;;;;;8.68;100.00;96429.44;5026869;28;20047;-82
2023/09/25 00:03:42;;;;;;;2.80;2.60;;;;;;;8.66;100.00;96422.63;5029644;28;20033;-81
2023/09/25 00:06:08;;;;;;;3.35;3.05;;;;;;;8.65;100.00;96420.94;5027639;28;20026;-81
2023/09/25 00:08:34;;;;;;;4.13;3.78;;;;;;;8.64;100.00;96420.13;5027845;28;20050;-81
2023/09/25 00:11:00;;;;;;;4.35;2.92;;;;;;;8.63;100.00;96425.47;5025069;28;20156;-81
2023/09/25 00:13:26;;;;;;;3.90;2.95;;;;;;;8.58;100.00;96426.66;5019112;28;20029;-82
2023/09/25 00:15:51;;;;;;;3.03;2.83;;;;;;;8.57;100.00;96432.84;5025237;28;20033;-81
2023/09/25 00:18:16;;;;;;;3.70;3.13;;;;;;;8.53;100.00;96423.53;5011328;28;20028;-82
2023/09/25 00:20:42;;;;;;;3.17;2.88;;;;;;;8.52;100.00;96423.63;5032029;28;20021;-82
2023/09/25 00:23:08;;;;;;;3.17;2.90;;;;;;;8.48;100.00;96420.34;5030442;28;20544;-82
2023/09/25 00:25:33;;;;;;;3.25;3.05;;;;;;;8.49;100.00;96419.41;5032663;28;20025;-82
2023/09/25 00:28:00;;;;;;;3.53;2.97;;;;;;;8.49;100.00;96416.78;5031888;28;20089;-82
2023/09/25 00:30:26;;;;;;;3.33;3.03;;;;;;;8.47;100.00;96413.41;5030499;28;20044;-82
2023/09/25 00:32:52;;;;;;;4.18;2.85;;;;;;;8.45;100.00;96415.31;5035592;28;20026;-82
2023/09/25 00:35:21;;;;;;;3.05;2.85;;;;;;;8.44;100.00;96413.66;5015493;28;20021;-82
2023/09/25 00:37:47;;;;;;;4.07;3.47;;;;;;;8.45;100.00;96413.53;5032821;28;20388;-82
2023/09/25 00:40:13;;;;;;;3.47;3.17;;;;;;;8.44;100.00;96416.28;5032052;28;20029;-82
2023/09/25 00:42:45;;;;;;;3.88;3.47;;;;;;;8.45;100.00;96415.31;5032797;28;20025;-81
2023/09/25 00:45:11;;;;;;;3.03;2.75;;;;;;;8.47;100.00;96402.94;5028517;28;20116;-81
2023/09/25 00:47:38;;;;;;;3.75;3.50;;;;;;;8.43;100.00;96397.06;5016788;28;20049;-81
2023/09/25 00:50:04;;;;;;;3.55;3.25;;;;;;;8.34;100.00;96396.91;5010649;28;20056;-81
2023/09/25 00:52:33;;;;;;;3.67;3.30;;;;;;;8.35;100.00;96393.34;5021742;28;20083;-81
2023/09/25 00:55:00;;;;;;;3.65;3.40;;;;;;;8.33;100.00;96396.06;5035167;28;20021;-80
2023/09/25 00:57:26;;;;;;;3.70;3.40;;;;;;;8.27;100.00;96392.06;5030415;28;20017;-82
2023/09/25 00:59:52;;;;;;;3.90;3.40;;;;;;;8.29;100.00;96394.59;5032433;28;20513;-80
2023/09/25 01:02:17;;;;;;;3.53;3.25;;;;;;;8.25;100.00;96401.03;5030836;28;20056;-80
2023/09/25 01:04:43;;;;;;;3.38;3.17;;;;;;;8.24;100.00;96396.72;5012092;28;20037;-81
2023/09/25 01:07:09;;;;;;;3.10;2.90;;;;;;;8.22;100.00;96399.44;5030742;28;20025;-82
2023/09/25 01:09:34;;;;;;;4.13;3.83;;;;;;;8.25;100.00;96401.84;5031374;28;20021;-81
2023/09/25 01:11:59;;;;;;;3.53;3.10;;;;;;;8.26;100.00;96406.16;5023308;28;20056;-81
2023/09/25 01:14:27;;;;;;;4.05;3.67;;;;;;;8.30;100.00;96398.91;5025101;28;20825;-81
2023/09/25 01:16:52;;;;;;;4.00;3.70;;;;;;;8.28;100.00;96396.38;5030478;28;20036;-81
2023/09/25 01:19:18;;;;;;;3.90;3.60;;;;;;;8.28;100.00;96396.38;5031138;28;20104;-81
2023/09/25 01:21:46;;;;;;;6.93;3.85;;;;;;;8.26;100.00;96397.44;5031721;28;20024;-80
2023/09/25 01:24:11;;;;;;;4.30;3.90;;;;;;;8.20;100.00;96392.66;5027213;28;20338;-81
2023/09/25 01:26:37;;;;;;;4.10;3.80;;;;;;;8.14;100.00;96396.53;5029391;28;20034;-82
2023/09/25 01:29:02;;;;;;;4.13;3.55;;;;;;;8.11;100.00;96379.22;5030696;28;20037;-82
2023/09/25 01:31:28;;;;;;;4.63;3.70;;;;;;;8.08;100.00;96391.75;5035622;28;20087;-81
2023/09/25 01:33:54;;;;;;;5.88;3.90;;;;;;;8.07;100.00;96392.66;5028076;28;20124;-81
2023/09/25 01:36:19;;;;;;;3.58;3.30;;;;;;;8.09;100.00;96393.41;5032874;28;20026;-81
2023/09/25 01:38:47;;;;;;;3.47;3.17;;;;;;;8.04;100.00;96393.75;5031975;28;20382;-81
2023/09/25 01:41:15;;;;;;;4.72;3.90;;;;;;;8.01;100.00;96399.22;4999256;28;20033;-81
2023/09/25 01:43:43;;;;;;;4.07;3.70;;;;;;;8.02;100.00;96404.31;5033848;28;20033;-82
2023/09/25 01:46:08;;;;;;;4.00;3.60;;;;;;;8.05;100.00;96402.44;5030956;28;20124;-81
2023/09/25 01:48:33;;;;;;;4.28;3.35;;;;;;;8.02;100.00;96401.69;5012142;28;20056;-82
2023/09/25 01:50:59;;;;;;;5.57;4.07;;;;;;;8.04;100.00;96404.22;5033209;28;20057;-82
2023/09/25 01:53:24;;;;;;;5.07;4.13;;;;;;;8.05;100.00;96403.28;5028242;28;20077;-82
2023/09/25 01:55:49;;;;;;;4.50;3.90;;;;;;;8.00;100.00;96400.97;5036282;28;20021;-81
2023/09/25 01:58:15;;;;;;;5.25;3.88;;;;;;;8.00;100.00;96400.16;5031834;28;20057;-82
2023/09/25 02:00:40;;;;;;;3.97;3.40;;;;;;;8.00;100.00;96398.34;5027328;28;20124;-82
2023/09/25 02:03:06;;;;;;;4.88;4.30;;;;;;;8.02;100.00;96409.56;5026925;28;20079;-81
2023/09/25 02:05:32;;;;;;;4.55;4.15;;;;;;;7.97;100.00;96403.81;5022636;28;20120;-82
2023/09/25 02:07:58;;;;;;;5.97;4.13;;;;;;;7.94;100.00;96406.66;5031284;28;20490;-81
2023/09/25 02:10:24;;;;;;;4.95;4.13;;;;;;;7.90;100.00;96402.59;5030327;28;20083;-82
2023/09/25 02:12:49;;;;;;;4.38;3.95;;;;;;;7.88;100.00;96407.09;5034566;28;20037;-81
2023/09/25 02:15:16;;;;;;;4.43;4.00;;;;;;;7.85;100.00;96412.56;5034398;28;20024;-81
2023/09/25 02:17:41;;;;;;;5.32;4.25;;;;;;;7.80;100.00;96404.16;5026564;28;20691;-81
2023/09/25 02:20:20;;;;;;;12.60;3.60;;;;;;;7.76;100.00;96405.31;5011511;28;20026;-80
2023/09/25 02:22:51;;;;;;;7.32;4.38;;;;;;;7.71;100.00;96400.38;5031366;28;20062;-81
2023/09/25 02:25:16;;;;;;;4.47;4.15;;;;;;;7.71;100.00;96395.16;5028490;28;20034;-81
2023/09/25 02:27:42;;;;;;;5.10;4.05;;;;;;;7.69;100.00;96399.66;5032739;28;20033;-82
2023/09/25 02:30:09;;;;;;;4.70;4.30;;;;;;;7.68;100.00;96404.09;5025953;28;20135;-80
2023/09/25 02:32:36;;;;;;;5.00;4.25;;;;;;;7.71;100.00;96400.38;5024803;28;20025;-80
2023/09/25 02:35:02;;;;;;;4.43;4.03;;;;;;;7.66;100.00;96408.59;5030236;28;20674;-80
2023/09/25 02:37:31;;;;;;;4.50;4.15;;;;;;;7.68;100.00;96401.47;5024030;28;20455;-81
2023/09/25 02:39:56;;;;;;;5.95;4.70;;;;;;;7.69;100.00;96400.50;5024397;28;20033;-81
2023/09/25 02:42:21;;;;;;;5.38;4.22;;;;;;;7.67;100.00;96397.16;5030853;28;20022;-80
2023/09/25 02:44:47;;;;;;;5.72;4.80;;;;;;;7.65;100.00;96390.34;5027208;28;20552;-80
2023/09/25 02:47:12;;;;;;;5.50;4.53;;;;;;;7.64;100.00;96388.66;5015438;28;20032;-81
2023/09/25 02:49:37;;;;;;;4.10;3.75;;;;;;;7.60;100.00;96395.91;5024384;28;20033;-80
2023/09/25 02:52:03;;;;;;;5.82;4.60;;;;;;;7.56;100.00;96394.44;5023185;28;20045;-80
2023/09/25 02:54:28;;;;;;;4.85;4.35;;;;;;;7.53;100.00;96392.88;5028715;28;20100;-79
2023/09/25 02:56:54;;;;;;;4.22;3.65;;;;;;;7.51;100.00;96394.75;5037192;28;20044;-79
2023/09/25 02:59:19;;;;;;;4.63;4.32;;;;;;;7.54;100.00;96399.81;5021699;28;20445;-81
2023/09/25 03:01:44;;;;;;;4.82;4.20;;;;;;;7.56;100.00;96397.91;5030468;28;20548;-80
2023/09/25 03:04:10;;;;;;;4.55;4.15;;;;;;;7.57;100.00;96398.72;5036745;28;20021;-81
2023/09/25 03:06:36;;;;;;;5.00;4.30;;;;;;;7.54;100.00;96394.56;5008197;28;20041;-81
2023/09/25 03:09:01;;;;;;;4.93;3.92;;;;;;;7.51;100.00;96397.38;5030255;28;20393;-80
2023/09/25 03:11:27;;;;;;;4.40;4.00;;;;;;;7.51;100.00;96399.16;5034531;28;20021;-81
2023/09/25 03:13:52;;;;;;;4.53;4.10;;;;;;;7.53;100.00;96399.88;5035262;28;20075;-81
2023/09/25 03:16:18;;;;;;;4.35;3.95;;;;;;;7.49;100.00;96401.06;5035392;28;20018;-81
2023/09/25 03:18:44;;;;;;;3.60;3.30;;;;;;;7.43;100.00;96397.06;5036309;28;20029;-81
2023/09/25 03:21:11;;;;;;;4.85;4.45;;;;;;;7.48;100.00;96394.97;5033932;28;20489;-82
2023/09/25 03:23:37;;;;;;;4.97;4.50;;;;;;;7.49;100.00;96395.81;5036985;28;20036;-81
2023/09/25 03:26:03;;;;;;;5.38;4.80;;;;;;;7.52;100.00;96400.84;5034729;28;20033;-80
2023/09/25 03:28:28;;;;;;;6.20;4.20;;;;;;;7.53;100.00;96399.88;5035746;28;20063;-80
2023/09/25 03:30:54;;;;;;;4.57;4.15;;;;;;;7.47;100.00;96393.28;5032500;28;20469;-80
2023/09/25 03:33:21;;;;;;;4.25;3.35;;;;;;;7.39;100.00;96393.81;5017197;28;20024;-80
2023/09/25 03:35:47;;;;;;;5.85;4.90;;;;;;;7.32;100.00;96395.19;5014695;28;20029;-80
2023/09/25 03:38:12;;;;;;;4.50;4.10;;;;;;;7.30;100.00;96397.06;5014781;28;20037;-81
2023/09/25 03:40:37;;;;;;;6.70;3.47;;;;;;;7.23;100.00;96396.63;5013519;28;20029;-80
2023/09/25 03:43:04;;;;;;;6.43;3.92;;;;;;;7.22;100.00;96394.97;5032337;28;20029;-79
2023/09/25 03:45:30;;;;;;;4.20;3.88;;;;;;;7.21;100.00;96392.47;5022176;28;20022;-81
2023/09/25 03:47:55;;;;;;;4.15;3.83;;;;;;;7.24;100.00;96394.88;5032508;28;20113;-80
2023/09/25 03:50:20;;;;;;;4.82;4.43;;;;;;;7.21;100.00;96388.03;5033062;28;20152;-79
2023/09/25 03:52:46;;;;;;;3.67;3.42;;;;;;;7.22;100.00;96392.34;5029175;28;20453;-80
2023/09/25 03:55:11;;;;;;;4.78;4.00;;;;;;;7.22;100.00;96384.47;5034579;28;20171;-81
2023/09/25 03:57:37;;;;;;;4.63;4.22;;;;;;;7.20;100.00;96386.38;5033888;28;20101;-81
2023/09/25 04:00:06;;;;;;;4.80;4.40;;;;;;;7.16;100.00;96385.72;5038643;28;20013;-80
2023/09/25 04:02:31;;;;;;;4.72;3.33;;;;;;;7.13;100.00;96387.75;5011036;28;20025;-81
2023/09/25 04:04:56;;;;;;;4.60;4.20;;;;;;;7.10;100.00;96386.16;5038947;28;20025;-81
2023/09/25 04:07:22;;;;;;;3.78;3.42;;;;;;;7.11;100.00;96390.44;5039482;28;20041;-81
2023/09/25 04:09:47;;;;;;;5.45;4.40;;;;;;;7.08;100.00;96389.84;5039181;28;20018;-82
2023/09/25 04:12:14;;;;;;;3.95;3.60;;;;;;;7.03;100.00;96385.72;5020936;28;20033;-81
2023/09/25 04:14:41;;;;;;;4.97;4.53;;;;;;;7.01;100.00;96381.53;5038439;28;20033;-81
2023/09/25 04:17:08;;;;;;;4.97;4.55;;;;;;;6.98;100.00;96381.75;5021667;28;20099;-79
2023/09/25 04:19:33;;;;;;;5.07;4.40;;;;;;;7.00;100.00;96379.88;5034374;28;20068;-79
2023/09/25 04:21:59;;;;;;;4.90;4.00;;;;;;;7.04;100.00;96376.09;5023891;28;20183;-83
2023/09/25 04:24:25;;;;;;;6.32;4.38;;;;;;;7.07;100.00;96369.81;5038282;28;20032;-76
2023/09/25 04:26:51;;;;;;;6.78;3.60;;;;;;;7.09;100.00;96371.38;5025725;28;20056;-76
2023/09/25 04:29:17;;;;;;;6.15;4.50;;;;;;;7.07;100.00;96370.66;5011082;28;20908;-76
2023/09/25 04:31:46;;;;;;;4.70;4.28;;;;;;;6.97;100.00;96374.84;5033712;28;20064;-76
2023/09/25 04:34:12;;;;;;;5.53;4.40;;;;;;;6.98;100.00;96368.66;5022097;28;20065;-76
2023/09/25 04:36:38;;;;;;;5.20;3.67;;;;;;;7.00;100.00;96367.59;5027627;28;20057;-76
2023/09/25 04:39:04;;;;;;;6.38;4.80;;;;;;;6.97;100.00;96372.22;5032724;28;20029;-77
2023/09/25 04:41:29;;;;;;;5.05;4.38;;;;;;;6.95;100.00;96361.84;5037800;28;20021;-81
2023/09/25 04:43:55;;;;;;;4.75;3.42;;;;;;;6.94;100.00;96377.63;5030751;28;20030;-81
2023/09/25 04:46:20;;;;;;;4.68;4.25;;;;;;;6.89;100.00;96372.72;5027330;28;20054;-80
2023/09/25 04:48:46;;;;;;;6.05;3.80;;;;;;;6.94;100.00;96367.16;5036792;28;20025;-80
2023/09/25 04:51:16;;;;;;;5.55;4.93;;;;;;;6.92;100.00;96362.06;5030692;28;20049;-81
2023/09/25 04:53:42;;;;;;;4.10;3.70;;;;;;;6.88;100.00;96371.06;5023274;28;20045;-81
2023/09/25 04:56:08;;;;;;;5.90;4.60;;;;;;;6.82;100.00;96371.44;5027717;28;20033;-83
2023/09/25 04:58:33;;;;;;;5.38;3.92;;;;;;;6.82;100.00;96371.44;5015239;28;20413;-79
2023/09/25 05:00:59;;;;;;;7.32;4.60;;;;;;;6.81;100.00;96380.25;5031997;28;20029;-81
2023/09/25 05:03:25;;;;;;;4.32;3.92;;;;;;;6.77;100.00;96374.38;5030087;28;20049;-80
2023/09/25 05:05:51;;;;;;;8.27;4.85;;;;;;;6.74;100.00;96370.19;5032803;28;20053;-80
2023/09/25 05:08:16;;;;;;;4.00;3.60;;;;;;;6.70;100.00;96373.94;5033755;28;20033;-81
2023/09/25 05:10:42;;;;;;;5.43;5.03;;;;;;;6.73;100.00;96383.34;5031285;28;20532;-81
2023/09/25 05:13:07;;;;;;;6.20;5.40;;;;;;;6.72;100.00;96379.91;5009888;28;20060;-81
2023/09/25 05:15:32;;;;;;;5.00;4.30;;;;;;;6.74;100.00;96379.78;5032981;28;20440;-81
2023/09/25 05:17:58;;;;;;;7.18;5.50;;;;;;;6.80;100.00;96383.78;5026532;28;20025;-82
2023/09/25 05:20:25;;;;;;;5.28;4.38;;;;;;;6.78;100.00;96388.28;5036544;28;20423;-82
2023/09/25 05:22:56;;;;;;;6.78;4.65;;;;;;;6.73;100.00;96388.59;5035652;28;20081;-82
2023/09/25 05:25:22;;;;;;;6.57;5.32;;;;;;;6.69;100.00;96393.22;5024989;28;20037;-81
2023/09/25 05:27:50;;;;;;;5.90;5.35;;;;;;;6.67;100.00;96394.22;5024300;28;20041;-82
2023/09/25 05:30:17;;;;;;;7.72;6.28;;;;;;;6.66;100.00;96393.41;5030379;28;20033;-84
2023/09/25 05:32:50;;;;;;;5.32;4.60;;;;;;;6.65;100.00;96393.50;5038017;28;20037;-82
2023/09/25 05:35:17;;;;;;;7.35;4.13;;;;;;;6.65;100.00;96396.97;5026687;28;20492;-82
2023/09/25 05:37:45;;;;;;;6.30;4.28;;;;;;;6.64;100.00;96400.53;5027213;28;20033;-83
2023/09/25 05:40:11;;;;;;;6.00;5.38;;;;;;;6.65;100.00;96398.72;5013647;28;20030;-78
2023/09/25 05:42:39;;;;;;;5.72;5.22;;;;;;;6.67;100.00;96402.94;5029526;28;20033;-83
2023/09/25 05:45:05;;;;;;;5.93;4.20;;;;;;;6.67;100.00;96399.47;5025686;28;20061;-78
2023/09/25 05:47:31;;;;;;;5.43;4.93;;;;;;;6.69;100.00;96405.44;5013469;28;20025;-80
2023/09/25 05:49:57;;;;;;;5.03;4.53;;;;;;;6.69;100.00;96402.81;5026105;28;20022;-79
2023/09/25 05:52:22;;;;;;;4.88;4.07;;;;;;;6.68;100.00;96406.38;5025772;28;20050;-77
2023/09/25 05:54:49;;;;;;;8.82;5.88;;;;;;;6.64;100.00;96402.28;5028175;28;20029;-78
2023/09/25 05:57:15;;;;;;;9.23;5.38;;;;;;;6.63;100.00;96404.09;5036254;28;20762;-75
2023/09/25 05:59:40;;;;;;;7.90;5.03;;;;;;;6.61;100.00;96405.13;5028262;28;20053;-76
2023/09/25 06:02:07;;;;;;;8.40;6.13;;;;;;;6.58;100.00;96396.53;5033946;28;20500;-76
2023/09/25 06:04:36;;;;;;;5.45;4.78;;;;;;;6.61;100.00;96399.88;5034882;28;20014;-77
2023/09/25 06:07:05;;;;;;;9.60;6.43;;;;;;;6.61;100.00;96407.72;5029200;28;20026;-78
2023/09/25 06:09:31;;;;;;;7.07;6.38;;;;;;;6.60;100.00;96401.63;5033545;28;20207;-78
2023/09/25 06:11:57;;;;;;;8.75;6.40;;;;;;;6.63;100.00;96398.84;5033366;28;20036;-76
2023/09/25 06:14:23;;;;;;;10.55;8.35;;;;;;;6.65;100.00;96406.59;5031644;28;20600;-78
2023/09/25 06:16:50;;;;;;;11.25;8.55;;;;;;;6.64;100.00;96397.06;5033711;28;20036;-78
2023/09/25 06:19:18;;;;;;;9.05;7.20;;;;;;;6.63;100.00;96400.63;5034919;28;20025;-78
2023/09/25 06:21:44;;;;;;;13.05;10.02;;;;;;;6.68;100.00;96396.78;5026480;28;20021;-76
2023/09/25 06:24:09;;;;;;;10.25;9.20;;;;;;;6.72;100.00;96400.00;5035649;28;20029;-79
2023/09/25 06:26:39;;;;;;;10.00;9.00;;;;;;;6.79;100.00;96398.69;5035967;28;20083;-81
2023/09/25 06:29:08;;;;;;;14.52;7.95;;;;;;;6.83;100.00;96394.91;5028936;28;20049;-81
2023/09/25 06:31:34;;;;;;;10.65;9.18;;;;;;;6.87;100.00;96395.56;5028343;28;20028;-78
2023/09/25 06:33:59;;;;;;;12.57;9.40;;;;;;;6.92;100.00;96397.84;5036276;28;20022;-79
2023/09/25 06:36:25;;;;;;;16.88;8.57;;;;;;;6.94;100.00;96398.59;5028119;28;20464;-79
2023/09/25 06:38:51;;;;;;;10.15;8.77;;;;;;;6.88;100.00;96403.28;5015058;28;20028;-79
2023/09/25 06:41:17;;;;;;;10.50;6.65;;;;;;;6.85;100.00;96408.72;5032635;28;20021;-78
2023/09/25 06:43:42;;;;;;;8.15;6.22;;;;;;;6.88;100.00;96407.72;5025362;28;20053;-78
2023/09/25 06:46:08;;;;;;;7.85;6.18;;;;;;;6.94;100.00;96396.81;5015618;28;20168;-79
2023/09/25 06:48:33;;;;;;;12.40;8.65;;;;;;;7.00;100.00;96403.44;5031321;28;20025;-79
2023/09/25 06:50:59;;;;;;;10.70;6.40;;;;;;;7.02;100.00;96405.00;5034661;28;20026;-79
2023/09/25 06:53:25;;;;;;;8.90;7.70;;;;;;;7.07;100.00;96409.94;5013237;28;20120;-79
2023/09/25 06:55:50;;;;;;;9.57;6.20;;;;;;;7.10;100.00;96401.88;5018812;28;20026;-79
2023/09/25 06:58:16;;;;;;;8.75;7.57;;;;;;;7.16;100.00;96411.09;5021700;28;20037;-80
2023/09/25 07:00:46;;;;;;;8.68;6.07;;;;;;;7.16;100.00;96416.34;5006947;28;20404;-79
2023/09/25 07:03:12;;;;;;;10.05;7.28;;;;;;;7.19;100.00;96416.13;5034730;28;20025;-79
2023/09/25 07:05:38;;;;;;;9.82;7.05;;;;;;;7.16;100.00;96418.94;5029527;28;20694;-79
2023/09/25 07:08:04;;;;;;;9.70;6.07;;;;;;;7.09;100.00;96421.13;5015726;28;20394;-79
2023/09/25 07:10:30;;;;;;;7.80;7.03;;;;;;;7.05;100.00;96419.66;5015647;28;20104;-79
2023/09/25 07:12:56;;;;;;;8.88;7.50;;;;;;;7.05;100.00;96416.19;5027012;28;20055;-79
2023/09/25 07:15:22;;;;;;;9.32;5.93;;;;;;;7.17;100.00;96418.84;5034434;28;20075;-80
2023/09/25 07:17:48;;;;;;;9.43;7.57;;;;;;;7.51;100.00;96410.47;5023942;28;20026;-80
2023/09/25 07:20:13;;;;;;;8.75;5.50;;;;;;;8.02;100.00;96414.81;5017299;28;20024;-80
2023/09/25 07:22:39;;;;;;;6.90;6.05;;;;;;;8.48;100.00;96415.09;5034923;28;20063;-80
2023/09/25 07:25:05;;;;;;;6.78;6.18;;;;;;;8.83;100.00;96413.50;5019350;28;20030;-80
2023/09/25 07:27:32;;;;;;;10.52;5.40;;;;;;;9.02;100.00;96423.50;5008077;28;20083;-80
2023/09/25 07:29:59;;;;;;;10.07;6.65;;;;;;;9.24;100.00;96421.88;5029928;28;20549;-80
2023/09/25 07:32:25;;;;;;;9.65;6.55;;;;;;;9.38;100.00;96428.72;5024852;28;20037;-80
2023/09/25 07:34:51;;;;;;;6.72;5.65;;;;;;;9.38;100.00;96431.34;5022609;28;20037;-80
2023/09/25 07:37:17;;;;;;;6.45;5.72;;;;;;;9.40;100.00;96437.31;5005657;28;20030;-81
2023/09/25 07:39:43;;;;;;;7.10;6.20;;;;;;;9.49;100.00;96455.00;5004065;28;20028;-80
2023/09/25 07:42:09;;;;;;;8.57;5.43;;;;;;;9.58;100.00;96446.44;5034652;28;20021;-80
2023/09/25 07:44:35;;;;;;;8.60;5.28;;;;;;;9.73;100.00;96454.13;5022962;28;20068;-80
2023/09/25 07:47:06;;;;;;;9.23;5.22;;;;;;;9.91;100.00;96462.38;5022708;28;20065;-80
2023/09/25 07:49:33;;;;;;;5.55;5.03;;;;;;;10.07;100.00;96477.78;5016229;28;20046;-81
2023/09/25 07:52:00;;;;;;;4.90;4.38;;;;;;;10.21;100.00;96479.34;5017180;28;20085;-83
2023/09/25 07:54:26;;;;;;;4.72;4.32;;;;;;;10.34;100.00;96481.03;5023190;28;20045;-82
2023/09/25 07:56:52;;;;;;;5.47;4.97;;;;;;;10.43;100.00;96491.69;5021736;28;20028;-82
2023/09/25 07:59:17;;;;;;;5.07;4.68;;;;;;;10.53;100.00;96497.06;5009229;28;20109;-81
2023/09/25 08:01:42;;;;;;;7.20;4.90;;;;;;;10.67;100.00;96509.13;5031452;28;20021;-81
2023/09/25 08:04:08;;;;;;;5.47;4.38;;;;;;;10.83;100.00;96513.16;5034041;28;20108;-81
2023/09/25 08:06:33;;;;;;;7.60;4.95;;;;;;;10.99;100.00;96524.13;5034749;28;20025;-82
2023/09/25 08:08:59;;;;;;;7.20;4.68;;;;;;;11.10;100.00;96532.97;5034586;28;20025;-81
2023/09/25 08:11:26;;;;;;;5.05;4.53;;;;;;;11.25;100.00;96546.72;5017366;28;20025;-80
2023/09/25 08:13:54;;;;;;;5.30;4.60;;;;;;;11.33;100.00;96554.81;5034521;28;20048;-80
2023/09/25 08:16:22;;;;;;;5.95;4.82;;;;;;;11.35;100.00;96558.16;5021184;28;20034;-80
2023/09/25 08:18:48;;;;;;;6.53;5.05;;;;;;;11.40;100.00;96569.19;5023422;28;20097;-79
2023/09/25 08:21:14;;;;;;;5.53;4.53;;;;;;;11.30;100.00;96584.06;5034108;28;20121;-79
2023/09/25 08:23:39;;;;;;;5.32;4.82;;;;;;;11.31;100.00;96593.66;5034779;28;20057;-80
2023/09/25 08:26:08;;;;;;;5.30;4.80;;;;;;;11.38;100.00;96594.81;5033448;28;20072;-82
2023/09/25 08:28:34;;;;;;;8.07;4.63;;;;;;;11.41;100.00;96605.13;5024532;28;20381;-80
2023/09/25 08:31:00;;;;;;;6.63;4.60;;;;;;;11.56;100.00;96612.75;5018320;28;20036;-80
2023/09/25 08:33:25;;;;;;;5.00;4.53;;;;;;;11.64;100.00;96620.88;5035216;28;20021;-79
2023/09/25 08:35:52;;;;;;;4.45;4.05;;;;;;;11.81;100.00;96626.53;5033309;28;20036;-81
2023/09/25 08:38:17;;;;;;;4.80;4.32;;;;;;;11.86;100.00;96638.41;5037794;28;20037;-80
2023/09/25 08:40:47;;;;;;;5.32;4.38;;;;;;;11.87;100.00;96648.00;5038148;28;20661;-79
2023/09/25 08:43:13;;;;;;;6.72;4.35;;;;;;;12.03;100.00;96655.50;5025123;28;20018;-79
2023/09/25 08:45:40;;;;;;;5.78;4.10;;;;;;;12.15;100.00;96666.84;5030727;28;20038;-80
2023/09/25 08:48:06;;;;;;;8.98;4.32;;;;;;;12.17;100.00;96682.56;5035036;28;20037;-79
2023/09/25 08:50:33;;;;;;;5.00;4.45;;;;;;;12.10;100.00;96684.03;5034856;28;20061;-76
2023/09/25 08:52:59;;;;;;;5.10;4.60;;;;;;;12.10;100.00;96698.06;5016841;28;20057;-77
2023/09/25 08:55:24;;;;;;;6.10;5.03;;;;;;;12.11;100.00;96702.38;5034720;28;20051;-78
2023/09/25 08:57:50;;;;;;;5.45;4.95;;;;;;;12.18;100.00;96700.06;5035839;28;20026;-77
2023/09/25 09:00:16;;;;;;;5.13;4.60;;;;;;;12.24;100.00;96706.66;5032083;28;20144;-76
2023/09/25 09:02:43;;;;;;;6.40;5.00;;;;;;;12.43;100.00;96705.94;5035400;28;20386;-76
2023/09/25 09:05:11;;;;;;;5.53;5.03;;;;;;;12.54;100.00;96708.53;5020239;28;20033;-77
2023/09/25 09:07:38;;;;;;;6.90;4.68;;;;;;;12.65;100.00;96726.13;5006058;28;20041;-73
2023/09/25 09:10:04;;;;;;;6.07;4.97;;;;;;;12.68;100.00;96720.56;5021762;28;20033;-73
2023/09/25 09:12:29;;;;;;;5.30;4.80;;;;;;;12.74;100.00;96729.78;5017137;28;20033;-74
2023/09/25 09:14:55;;;;;;;4.90;4.40;;;;;;;12.74;100.00;96719.22;5017831;28;20486;-75
2023/09/25 09:17:25;;;;;;;5.90;5.30;;;;;;;12.80;100.00;96697.56;4999179;28;20101;-77
2023/09/25 09:19:55;;;;;;;11.63;5.55;;;;;;;12.89;100.00;96699.41;5019531;28;20088;-74
2023/09/25 09:22:21;;;;;;;7.43;5.50;;;;;;;12.99;100.00;96691.50;5025212;28;20034;-73
2023/09/25 09:24:49;;;;;;;8.20;5.25;;;;;;;13.09;100.00;96701.31;4985077;28;20900;-73
2023/09/25 09:27:19;;;;;;;5.60;5.05;;;;;;;13.17;100.00;96699.69;5015764;28;20025;-72
2023/09/25 09:29:46;;;;;;;5.50;5.00;;;;;;;13.25;100.00;96706.91;5032816;28;20100;-73
2023/09/25 09:32:13;;;;;;;11.48;5.30;;;;;;;13.47;100.00;96720.94;5035156;28;20096;-73
2023/09/25 09:34:39;;;;;;;6.45;5.07;;;;;;;13.71;100.00;96728.53;5032578;28;20108;-73
2023/09/25 09:37:08;;;;;;;7.30;5.00;;;;;;;13.79;100.00;96701.38;5034637;28;20056;-73
2023/09/25 09:39:34;;;;;;;6.13;5.22;;;;;;;13.86;100.00;96699.84;5033486;28;20025;-73
2023/09/25 09:42:05;;;;;;;5.93;4.93;;;;;;;13.95;100.00;96698.19;5034784;28;20029;-76
2023/09/25 09:44:31;;;;;;;5.35;4.85;;;;;;;14.07;100.00;96698.06;5020348;28;20025;-75
2023/09/25 09:46:56;;;;;;;5.88;5.30;;;;;;;14.16;100.00;96683.97;5020556;28;20041;-75
2023/09/25 09:49:24;;;;;;;5.93;5.18;;;;;;;14.22;100.00;96686.06;5026913;28;20033;-75
2023/09/25 09:51:50;;;;;;;5.68;4.75;;;;;;;14.30;100.00;96675.63;5026100;28;20058;-75
2023/09/25 09:54:21;;;;;;;5.60;5.05;;;;;;;14.31;100.00;96671.16;5034511;28;20065;-74
2023/09/25 09:56:47;;;;;;;5.18;4.68;;;;;;;14.45;100.00;96661.91;5016235;28;20529;-75
2023/09/25 09:59:14;;;;;;;5.30;4.80;;;;;;;14.53;100.00;96669.16;5025157;28;20026;-76
2023/09/25 10:01:42;;;;;;;4.95;4.55;;;;;;;14.47;100.00;96671.41;5013457;28;20033;-77
2023/09/25 10:04:08;;;;;;;5.07;4.65;;;;;;;14.53;100.00;96677.97;5034385;28;20033;-76
2023/09/25 10:06:57;;;;;;;5.38;4.75;;;;;;;14.68;100.00;96698.69;5016485;28;20030;-76
2023/09/25 10:09:23;;;;;;;5.20;4.65;;;;;;;14.95;100.00;96705.09;5024434;28;20033;-75
2023/09/25 10:11:54;;;;;;;6.60;4.75;;;;;;;14.97;100.00;96698.63;5034093;28;20516;-76
2023/09/25 10:14:24;;;;;;;5.32;4.78;;;;;;;15.00;100.00;96694.88;5034295;28;20032;-76
2023/09/25 10:17:02;;;;;;;4.55;4.18;;;;;;;15.12;100.00;96698.19;5034319;28;20424;-73
2023/09/25 10:19:49;;;;;;;5.15;4.65;;;;;;;15.20;100.00;96700.09;5034237;28;20048;-78
2023/09/25 10:22:30;;;;;;;5.13;4.30;;;;;;;15.25;100.00;96679.28;5023439;28;20025;-76
2023/09/25 10:25:09;;;;;;;4.57;4.18;;;;;;;15.30;100.00;96682.31;5029319;28;20047;-77
2023/09/25 10:27:36;;;;;;;3.95;3.65;;;;;;;15.37;100.00;96690.53;5014054;28;20461;-78
2023/09/25 10:30:06;;;;;;;4.10;3.80;;;;;;;15.52;100.00;96701.47;5026320;28;20022;-74
2023/09/25 10:32:32;;;;;;;5.25;3.53;;;;;;;15.55;100.00;96701.16;5027926;28;20032;-74
2023/09/25 10:35:50;;;;;;;4.25;3.85;;;;;;;15.63;100.00;96703.09;5021632;28;20029;-82
2023/09/25 10:38:28;;;;;;;5.25;4.15;;;;;;;15.71;100.00;96682.78;5016109;28;20092;-72
2023/09/25 10:40:56;;;;;;;4.65;4.00;;;;;;;15.77;100.00;96676.03;5029088;28;20025;-82
2023/09/25 10:43:25;;;;;;;4.20;3.90;;;;;;;15.85;100.00;96691.22;5029803;28;20041;-79
2023/09/25 10:45:53;;;;;;;4.63;4.22;;;;;;;16.02;100.00;96694.91;5023681;28;20513;-83
2023/09/25 10:48:20;;;;;;;4.30;3.90;;;;;;;16.17;100.00;96684.56;5026783;28;20036;-83
2023/09/25 10:50:47;;;;;;;5.55;3.83;;;;;;;16.26;100.00;96675.69;5026784;28;20030;-80
2023/09/25 10:53:14;;;;;;;4.70;4.25;;;;;;;16.46;100.00;96673.69;5005187;28;20054;-82
2023/09/25 10:55:40;;;;;;;4.60;4.20;;;;;;;16.47;100.00;96643.44;5023018;28;20112;-80
2023/09/25 10:58:07;;;;;;;4.68;4.25;;;;;;;16.55;100.00;96666.59;5024760;28;20060;-83
2023/09/25 11:00:35;;;;;;;4.40;4.10;;;;;;;16.73;100.00;96649.78;5023319;28;20026;-84
2023/09/25 11:03:02;;;;;;;6.88;4.32;;;;;;;16.86;100.00;96647.50;5030503;28;20029;-81
2023/09/25 11:05:32;;;;;;;8.40;4.35;;;;;;;17.03;100.00;96639.63;5025552;28;20033;-82
2023/09/25 11:07:58;;;;;;;4.78;3.80;;;;;;;17.27;100.00;96617.63;5029806;28;20062;-84
2023/09/25 11:10:32;;;;;;;3.60;3.30;;;;;;;17.38;100.00;96608.50;5027799;28;20024;-81
2023/09/25 11:12:59;;;;;;;5.13;3.97;;;;;;;17.42;100.00;96603.69;5019290;28;20051;-81
2023/09/25 11:15:25;;;;;;;5.07;3.95;;;;;;;17.50;100.00;96582.41;5027152;28;20077;-81
2023/09/25 11:17:51;;;;;;;5.15;4.00;;;;;;;17.49;100.00;96588.75;5025923;28;20025;-83
2023/09/25 11:20:20;;;;;;;4.07;3.60;;;;;;;17.61;100.00;96610.56;5024147;28;20018;-80
2023/09/25 11:22:49;;;;;;;4.07;3.78;;;;;;;17.72;100.00;96610.22;5023875;28;20033;-80
2023/09/25 11:25:16;;;;;;;4.35;3.70;;;;;;;17.98;100.00;96613.75;5025491;28;20029;-80
2023/09/25 11:27:56;;;;;;;5.95;3.53;;;;;;;18.11;100.00;96598.13;5023486;28;20109;-80